sensor_id;sensor_type;location;lat;lon;timestamp;P1;durP1;ratioP1;P2;durP2;ratioP2
54517;SDS011;40423;53.176;6.002;2023-09-07T00:00:15;6.22;;;5.25;;
54517;SDS011;40423;53.176;6.002;2023-09-07T00:02:41;6.25;;;4.38;;
54517;SDS011;40423;53.176;6.002;2023-09-07T00:05:07;10.35;;;5.28;;
54517;SDS011;40423;53.176;6.002;2023-09-07T00:07:33;6.70;;;5.07;;
54517;SDS011;40423;53.176;6.002;2023-09-07T00:09:59;8.27;;;5.18;;
54517;SDS011;40423;53.176;6.002;2023-09-07T00:12:26;6.95;;;5.10;;
54517;SDS011;40423;53.176;6.002;2023-09-07T00:14:52;6.30;;;4.85;;
54517;SDS011;40423;53.176;6.002;2023-09-07T00:17:22;6.43;;;5.00;;
54517;SDS011;40423;53.176;6.002;2023-09-07T00:19:48;9.48;;;5.30;;
54517;SDS011;40423;53.176;6.002;2023-09-07T00:22:15;7.03;;;5.53;;
54517;SDS011;40423;53.176;6.002;2023-09-07T00:24:42;5.60;;;4.43;;
54517;SDS011;40423;53.176;6.002;2023-09-07T00:27:08;7.43;;;5.20;;
54517;SDS011;40423;53.176;6.002;2023-09-07T00:29:36;5.68;;;4.10;;
54517;SDS011;40423;53.176;6.002;2023-09-07T00:32:05;7.13;;;4.78;;
54517;SDS011;40423;53.176;6.002;2023-09-07T00:34:31;6.70;;;5.75;;
54517;SDS011;40423;53.176;6.002;2023-09-07T00:36:57;6.70;;;5.88;;
54517;SDS011;40423;53.176;6.002;2023-09-07T00:39:23;8.10;;;6.18;;
54517;SDS011;40423;53.176;6.002;2023-09-07T00:41:48;8.35;;;5.43;;
54517;SDS011;40423;53.176;6.002;2023-09-07T00:44:14;6.40;;;5.80;;
54517;SDS011;40423;53.176;6.002;2023-09-07T00:46:40;7.57;;;5.82;;
54517;SDS011;40423;53.176;6.002;2023-09-07T00:49:07;6.60;;;5.90;;
54517;SDS011;40423;53.176;6.002;2023-09-07T00:51:33;8.88;;;5.85;;
54517;SDS011;40423;53.176;6.002;2023-09-07T00:53:59;5.78;;;5.18;;
54517;SDS011;40423;53.176;6.002;2023-09-07T00:56:25;8.18;;;6.38;;
54517;SDS011;40423;53.176;6.002;2023-09-07T00:58:52;5.55;;;4.30;;
54517;SDS011;40423;53.176;6.002;2023-09-07T01:01:19;7.13;;;5.25;;
54517;SDS011;40423;53.176;6.002;2023-09-07T01:03:46;6.85;;;5.45;;
54517;SDS011;40423;53.176;6.002;2023-09-07T01:06:14;6.57;;;5.82;;
54517;SDS011;40423;53.176;6.002;2023-09-07T01:08:51;6.00;;;4.95;;
54517;SDS011;40423;53.176;6.002;2023-09-07T01:11:21;8.32;;;6.20;;
54517;SDS011;40423;53.176;6.002;2023-09-07T01:13:50;7.60;;;5.90;;
54517;SDS011;40423;53.176;6.002;2023-09-07T01:16:18;6.75;;;6.00;;
54517;SDS011;40423;53.176;6.002;2023-09-07T01:18:45;7.28;;;5.70;;
54517;SDS011;40423;53.176;6.002;2023-09-07T01:21:12;6.43;;;5.78;;
54517;SDS011;40423;53.176;6.002;2023-09-07T01:23:42;6.88;;;5.78;;
54517;SDS011;40423;53.176;6.002;2023-09-07T01:26:09;7.28;;;6.22;;
54517;SDS011;40423;53.176;6.002;2023-09-07T01:28:36;7.38;;;5.57;;
54517;SDS011;40423;53.176;6.002;2023-09-07T01:31:03;8.45;;;5.88;;
54517;SDS011;40423;53.176;6.002;2023-09-07T01:33:29;7.30;;;5.55;;
54517;SDS011;40423;53.176;6.002;2023-09-07T01:35:55;7.50;;;5.75;;
54517;SDS011;40423;53.176;6.002;2023-09-07T01:38:21;6.75;;;4.63;;
54517;SDS011;40423;53.176;6.002;2023-09-07T01:40:47;6.68;;;5.18;;
54517;SDS011;40423;53.176;6.002;2023-09-07T01:43:13;4.95;;;4.20;;
54517;SDS011;40423;53.176;6.002;2023-09-07T01:45:39;6.90;;;5.20;;
54517;SDS011;40423;53.176;6.002;2023-09-07T01:48:11;10.07;;;5.75;;
54517;SDS011;40423;53.176;6.002;2023-09-07T01:50:39;6.15;;;5.43;;
54517;SDS011;40423;53.176;6.002;2023-09-07T01:53:04;8.25;;;5.03;;
54517;SDS011;40423;53.176;6.002;2023-09-07T01:55:31;7.13;;;4.90;;
54517;SDS011;40423;53.176;6.002;2023-09-07T01:57:57;6.72;;;5.15;;
54517;SDS011;40423;53.176;6.002;2023-09-07T02:00:23;5.88;;;4.65;;
54517;SDS011;40423;53.176;6.002;2023-09-07T02:02:48;5.40;;;4.82;;
54517;SDS011;40423;53.176;6.002;2023-09-07T02:05:14;6.57;;;5.07;;
54517;SDS011;40423;53.176;6.002;2023-09-07T02:07:40;7.15;;;5.18;;
54517;SDS011;40423;53.176;6.002;2023-09-07T02:10:06;8.18;;;6.07;;
54517;SDS011;40423;53.176;6.002;2023-09-07T02:12:32;6.95;;;5.35;;
54517;SDS011;40423;53.176;6.002;2023-09-07T02:14:59;6.40;;;5.03;;
54517;SDS011;40423;53.176;6.002;2023-09-07T02:17:26;8.25;;;6.40;;
54517;SDS011;40423;53.176;6.002;2023-09-07T02:19:51;5.40;;;4.80;;
54517;SDS011;40423;53.176;6.002;2023-09-07T02:22:17;8.02;;;6.20;;
54517;SDS011;40423;53.176;6.002;2023-09-07T02:24:43;9.07;;;6.10;;
54517;SDS011;40423;53.176;6.002;2023-09-07T02:27:08;7.00;;;5.53;;
54517;SDS011;40423;53.176;6.002;2023-09-07T02:29:34;8.50;;;6.03;;
54517;SDS011;40423;53.176;6.002;2023-09-07T02:32:00;6.95;;;5.32;;
54517;SDS011;40423;53.176;6.002;2023-09-07T02:34:25;6.78;;;5.22;;
54517;SDS011;40423;53.176;6.002;2023-09-07T02:36:51;8.25;;;5.25;;
54517;SDS011;40423;53.176;6.002;2023-09-07T02:39:17;7.28;;;5.80;;
54517;SDS011;40423;53.176;6.002;2023-09-07T02:41:43;6.57;;;4.75;;
54517;SDS011;40423;53.176;6.002;2023-09-07T02:44:10;9.07;;;6.40;;
54517;SDS011;40423;53.176;6.002;2023-09-07T02:46:36;9.63;;;5.05;;
54517;SDS011;40423;53.176;6.002;2023-09-07T02:49:01;9.25;;;5.22;;
54517;SDS011;40423;53.176;6.002;2023-09-07T02:51:28;6.55;;;5.05;;
54517;SDS011;40423;53.176;6.002;2023-09-07T02:53:53;6.95;;;5.10;;
54517;SDS011;40423;53.176;6.002;2023-09-07T02:56:21;6.28;;;4.40;;
54517;SDS011;40423;53.176;6.002;2023-09-07T02:58:47;7.45;;;5.53;;
54517;SDS011;40423;53.176;6.002;2023-09-07T03:01:13;8.85;;;5.95;;
54517;SDS011;40423;53.176;6.002;2023-09-07T03:03:39;7.82;;;5.57;;
54517;SDS011;40423;53.176;6.002;2023-09-07T03:06:09;8.65;;;5.97;;
54517;SDS011;40423;53.176;6.002;2023-09-07T03:08:36;8.90;;;5.55;;
54517;SDS011;40423;53.176;6.002;2023-09-07T03:11:03;7.53;;;5.82;;
54517;SDS011;40423;53.176;6.002;2023-09-07T03:13:29;6.65;;;5.43;;
54517;SDS011;40423;53.176;6.002;2023-09-07T03:15:56;5.90;;;5.30;;
54517;SDS011;40423;53.176;6.002;2023-09-07T03:18:21;7.30;;;6.35;;
54517;SDS011;40423;53.176;6.002;2023-09-07T03:20:47;6.50;;;4.57;;
54517;SDS011;40423;53.176;6.002;2023-09-07T03:23:14;8.00;;;6.50;;
54517;SDS011;40423;53.176;6.002;2023-09-07T03:25:40;8.55;;;5.68;;
54517;SDS011;40423;53.176;6.002;2023-09-07T03:28:06;8.32;;;6.35;;
54517;SDS011;40423;53.176;6.002;2023-09-07T03:30:32;9.15;;;6.35;;
54517;SDS011;40423;53.176;6.002;2023-09-07T03:32:58;8.13;;;5.75;;
54517;SDS011;40423;53.176;6.002;2023-09-07T03:35:23;7.50;;;6.22;;
54517;SDS011;40423;53.176;6.002;2023-09-07T03:37:49;11.13;;;6.10;;
54517;SDS011;40423;53.176;6.002;2023-09-07T03:40:15;8.00;;;5.80;;
54517;SDS011;40423;53.176;6.002;2023-09-07T03:42:41;9.32;;;6.32;;
54517;SDS011;40423;53.176;6.002;2023-09-07T03:45:08;8.55;;;6.28;;
54517;SDS011;40423;53.176;6.002;2023-09-07T03:47:34;7.03;;;5.90;;
54517;SDS011;40423;53.176;6.002;2023-09-07T03:50:00;7.03;;;6.32;;
54517;SDS011;40423;53.176;6.002;2023-09-07T03:52:26;8.15;;;6.70;;
54517;SDS011;40423;53.176;6.002;2023-09-07T03:54:55;7.95;;;6.45;;
54517;SDS011;40423;53.176;6.002;2023-09-07T03:57:22;7.45;;;6.15;;
54517;SDS011;40423;53.176;6.002;2023-09-07T03:59:48;6.53;;;5.72;;
54517;SDS011;40423;53.176;6.002;2023-09-07T04:02:14;9.30;;;6.40;;
54517;SDS011;40423;53.176;6.002;2023-09-07T04:04:40;11.95;;;7.57;;
54517;SDS011;40423;53.176;6.002;2023-09-07T04:07:06;9.07;;;6.20;;
54517;SDS011;40423;53.176;6.002;2023-09-07T04:09:32;11.63;;;6.95;;
54517;SDS011;40423;53.176;6.002;2023-09-07T04:11:58;8.02;;;6.30;;
54517;SDS011;40423;53.176;6.002;2023-09-07T04:14:23;8.18;;;6.78;;
54517;SDS011;40423;53.176;6.002;2023-09-07T04:16:49;10.55;;;7.35;;
54517;SDS011;40423;53.176;6.002;2023-09-07T04:19:16;6.90;;;6.20;;
54517;SDS011;40423;53.176;6.002;2023-09-07T04:21:42;8.48;;;7.05;;
54517;SDS011;40423;53.176;6.002;2023-09-07T04:24:07;9.60;;;8.43;;
54517;SDS011;40423;53.176;6.002;2023-09-07T04:26:33;7.47;;;6.60;;
54517;SDS011;40423;53.176;6.002;2023-09-07T04:28:59;10.15;;;7.82;;
54517;SDS011;40423;53.176;6.002;2023-09-07T04:31:25;9.20;;;7.18;;
54517;SDS011;40423;53.176;6.002;2023-09-07T04:33:52;9.10;;;7.57;;
54517;SDS011;40423;53.176;6.002;2023-09-07T04:36:19;8.63;;;7.15;;
54517;SDS011;40423;53.176;6.002;2023-09-07T04:38:44;8.98;;;7.47;;
54517;SDS011;40423;53.176;6.002;2023-09-07T04:41:13;8.40;;;6.95;;
54517;SDS011;40423;53.176;6.002;2023-09-07T04:43:40;8.50;;;7.35;;
54517;SDS011;40423;53.176;6.002;2023-09-07T04:46:10;8.55;;;7.65;;
54517;SDS011;40423;53.176;6.002;2023-09-07T04:48:37;11.68;;;7.28;;
54517;SDS011;40423;53.176;6.002;2023-09-07T04:51:03;9.45;;;7.82;;
54517;SDS011;40423;53.176;6.002;2023-09-07T04:53:31;8.30;;;7.47;;
54517;SDS011;40423;53.176;6.002;2023-09-07T04:55:58;9.73;;;8.20;;
54517;SDS011;40423;53.176;6.002;2023-09-07T04:58:24;9.52;;;7.43;;
54517;SDS011;40423;53.176;6.002;2023-09-07T05:00:50;8.98;;;6.90;;
54517;SDS011;40423;53.176;6.002;2023-09-07T05:03:16;7.82;;;6.72;;
54517;SDS011;40423;53.176;6.002;2023-09-07T05:05:42;8.00;;;6.82;;
54517;SDS011;40423;53.176;6.002;2023-09-07T05:08:08;9.07;;;7.80;;
54517;SDS011;40423;53.176;6.002;2023-09-07T05:10:35;11.13;;;7.38;;
54517;SDS011;40423;53.176;6.002;2023-09-07T05:13:01;10.63;;;7.40;;
54517;SDS011;40423;53.176;6.002;2023-09-07T05:15:27;8.68;;;7.05;;
54517;SDS011;40423;53.176;6.002;2023-09-07T05:17:53;10.88;;;8.45;;
54517;SDS011;40423;53.176;6.002;2023-09-07T05:20:19;9.68;;;8.10;;
54517;SDS011;40423;53.176;6.002;2023-09-07T05:22:45;12.10;;;8.55;;
54517;SDS011;40423;53.176;6.002;2023-09-07T05:25:11;12.93;;;7.90;;
54517;SDS011;40423;53.176;6.002;2023-09-07T05:27:37;10.00;;;8.15;;
54517;SDS011;40423;53.176;6.002;2023-09-07T05:30:03;8.70;;;6.82;;
54517;SDS011;40423;53.176;6.002;2023-09-07T05:32:30;8.80;;;7.13;;
54517;SDS011;40423;53.176;6.002;2023-09-07T05:34:55;8.90;;;7.20;;
54517;SDS011;40423;53.176;6.002;2023-09-07T05:37:21;10.43;;;7.03;;
54517;SDS011;40423;53.176;6.002;2023-09-07T05:39:47;11.25;;;8.13;;
54517;SDS011;40423;53.176;6.002;2023-09-07T05:42:14;7.88;;;6.35;;
54517;SDS011;40423;53.176;6.002;2023-09-07T05:44:39;9.25;;;7.57;;
54517;SDS011;40423;53.176;6.002;2023-09-07T05:47:05;11.18;;;7.68;;
54517;SDS011;40423;53.176;6.002;2023-09-07T05:49:31;8.10;;;7.30;;
54517;SDS011;40423;53.176;6.002;2023-09-07T05:51:57;8.73;;;6.90;;
54517;SDS011;40423;53.176;6.002;2023-09-07T05:54:23;11.98;;;8.13;;
54517;SDS011;40423;53.176;6.002;2023-09-07T05:56:48;8.00;;;7.20;;
54517;SDS011;40423;53.176;6.002;2023-09-07T05:59:14;9.80;;;7.45;;
54517;SDS011;40423;53.176;6.002;2023-09-07T06:01:40;9.95;;;7.22;;
54517;SDS011;40423;53.176;6.002;2023-09-07T06:04:06;11.15;;;7.18;;
54517;SDS011;40423;53.176;6.002;2023-09-07T06:06:33;9.45;;;8.23;;
54517;SDS011;40423;53.176;6.002;2023-09-07T06:08:58;7.75;;;6.32;;
54517;SDS011;40423;53.176;6.002;2023-09-07T06:11:24;10.30;;;7.53;;
54517;SDS011;40423;53.176;6.002;2023-09-07T06:13:50;7.22;;;6.55;;
54517;SDS011;40423;53.176;6.002;2023-09-07T06:16:16;8.73;;;6.82;;
54517;SDS011;40423;53.176;6.002;2023-09-07T06:18:45;10.25;;;7.30;;
54517;SDS011;40423;53.176;6.002;2023-09-07T06:21:11;10.95;;;7.35;;
54517;SDS011;40423;53.176;6.002;2023-09-07T06:23:37;9.40;;;7.80;;
54517;SDS011;40423;53.176;6.002;2023-09-07T06:26:02;10.02;;;7.30;;
54517;SDS011;40423;53.176;6.002;2023-09-07T06:28:28;11.75;;;7.57;;
54517;SDS011;40423;53.176;6.002;2023-09-07T06:30:54;8.57;;;7.68;;
54517;SDS011;40423;53.176;6.002;2023-09-07T06:33:19;11.98;;;9.02;;
54517;SDS011;40423;53.176;6.002;2023-09-07T06:35:45;8.63;;;7.28;;
54517;SDS011;40423;53.176;6.002;2023-09-07T06:38:11;10.40;;;7.07;;
54517;SDS011;40423;53.176;6.002;2023-09-07T06:40:36;9.50;;;7.90;;
54517;SDS011;40423;53.176;6.002;2023-09-07T06:43:02;9.10;;;6.60;;
54517;SDS011;40423;53.176;6.002;2023-09-07T06:45:33;9.73;;;7.03;;
54517;SDS011;40423;53.176;6.002;2023-09-07T06:48:01;8.18;;;7.38;;
54517;SDS011;40423;53.176;6.002;2023-09-07T06:50:27;8.80;;;7.30;;
54517;SDS011;40423;53.176;6.002;2023-09-07T06:52:53;11.93;;;8.70;;
54517;SDS011;40423;53.176;6.002;2023-09-07T06:55:18;8.52;;;7.65;;
54517;SDS011;40423;53.176;6.002;2023-09-07T06:57:45;10.93;;;7.88;;
54517;SDS011;40423;53.176;6.002;2023-09-07T07:00:11;8.27;;;7.47;;
54517;SDS011;40423;53.176;6.002;2023-09-07T07:02:37;10.07;;;7.70;;
54517;SDS011;40423;53.176;6.002;2023-09-07T07:05:03;10.07;;;7.45;;
54517;SDS011;40423;53.176;6.002;2023-09-07T07:07:30;9.20;;;6.88;;
54517;SDS011;40423;53.176;6.002;2023-09-07T07:09:55;8.35;;;7.15;;
54517;SDS011;40423;53.176;6.002;2023-09-07T07:12:21;8.43;;;6.82;;
54517;SDS011;40423;53.176;6.002;2023-09-07T07:14:47;9.95;;;6.50;;
54517;SDS011;40423;53.176;6.002;2023-09-07T07:17:13;9.88;;;7.28;;
54517;SDS011;40423;53.176;6.002;2023-09-07T07:19:39;8.75;;;6.68;;
54517;SDS011;40423;53.176;6.002;2023-09-07T07:22:04;7.38;;;6.65;;
54517;SDS011;40423;53.176;6.002;2023-09-07T07:24:30;10.25;;;6.72;;
54517;SDS011;40423;53.176;6.002;2023-09-07T07:26:56;15.88;;;7.00;;
54517;SDS011;40423;53.176;6.002;2023-09-07T07:29:21;10.10;;;7.05;;
54517;SDS011;40423;53.176;6.002;2023-09-07T07:31:47;8.35;;;6.90;;
54517;SDS011;40423;53.176;6.002;2023-09-07T07:34:13;8.65;;;6.20;;
54517;SDS011;40423;53.176;6.002;2023-09-07T07:36:39;9.05;;;6.68;;
54517;SDS011;40423;53.176;6.002;2023-09-07T07:39:05;8.27;;;6.90;;
54517;SDS011;40423;53.176;6.002;2023-09-07T07:41:33;9.27;;;6.53;;
54517;SDS011;40423;53.176;6.002;2023-09-07T07:44:00;12.05;;;7.60;;
54517;SDS011;40423;53.176;6.002;2023-09-07T07:46:26;7.63;;;6.63;;
54517;SDS011;40423;53.176;6.002;2023-09-07T07:48:52;9.23;;;6.43;;
54517;SDS011;40423;53.176;6.002;2023-09-07T07:51:17;7.47;;;6.53;;
54517;SDS011;40423;53.176;6.002;2023-09-07T07:53:43;10.05;;;6.75;;
54517;SDS011;40423;53.176;6.002;2023-09-07T07:56:15;9.00;;;6.15;;
54517;SDS011;40423;53.176;6.002;2023-09-07T07:58:41;7.45;;;6.68;;
54517;SDS011;40423;53.176;6.002;2023-09-07T08:01:14;7.88;;;6.88;;
54517;SDS011;40423;53.176;6.002;2023-09-07T08:03:43;13.55;;;7.07;;
54517;SDS011;40423;53.176;6.002;2023-09-07T08:06:10;7.75;;;6.22;;
54517;SDS011;40423;53.176;6.002;2023-09-07T08:08:36;9.40;;;6.72;;
54517;SDS011;40423;53.176;6.002;2023-09-07T08:11:04;8.90;;;6.63;;
54517;SDS011;40423;53.176;6.002;2023-09-07T08:13:34;9.50;;;5.97;;
54517;SDS011;40423;53.176;6.002;2023-09-07T08:16:00;10.20;;;6.10;;
54517;SDS011;40423;53.176;6.002;2023-09-07T08:18:26;7.20;;;6.03;;
54517;SDS011;40423;53.176;6.002;2023-09-07T08:20:53;7.50;;;6.60;;
54517;SDS011;40423;53.176;6.002;2023-09-07T08:23:20;6.95;;;6.10;;
54517;SDS011;40423;53.176;6.002;2023-09-07T08:25:47;8.18;;;5.93;;
54517;SDS011;40423;53.176;6.002;2023-09-07T08:28:13;6.50;;;5.70;;
54517;SDS011;40423;53.176;6.002;2023-09-07T08:30:41;7.25;;;6.03;;
54517;SDS011;40423;53.176;6.002;2023-09-07T08:33:06;6.97;;;6.13;;
54517;SDS011;40423;53.176;6.002;2023-09-07T08:35:33;6.15;;;5.55;;
54517;SDS011;40423;53.176;6.002;2023-09-07T08:38:03;8.50;;;6.00;;
54517;SDS011;40423;53.176;6.002;2023-09-07T08:40:33;7.40;;;5.03;;
54517;SDS011;40423;53.176;6.002;2023-09-07T08:43:04;9.23;;;5.95;;
54517;SDS011;40423;53.176;6.002;2023-09-07T08:45:31;6.30;;;5.55;;
54517;SDS011;40423;53.176;6.002;2023-09-07T08:48:01;7.57;;;5.60;;
54517;SDS011;40423;53.176;6.002;2023-09-07T08:50:28;7.55;;;5.60;;
54517;SDS011;40423;53.176;6.002;2023-09-07T08:52:55;7.43;;;4.85;;
54517;SDS011;40423;53.176;6.002;2023-09-07T08:55:24;6.45;;;5.38;;
54517;SDS011;40423;53.176;6.002;2023-09-07T08:57:51;5.55;;;4.30;;
54517;SDS011;40423;53.176;6.002;2023-09-07T09:00:19;6.82;;;5.10;;
54517;SDS011;40423;53.176;6.002;2023-09-07T09:02:48;11.23;;;4.57;;
54517;SDS011;40423;53.176;6.002;2023-09-07T09:05:15;6.63;;;5.38;;
54517;SDS011;40423;53.176;6.002;2023-09-07T09:07:43;7.25;;;4.43;;
54517;SDS011;40423;53.176;6.002;2023-09-07T09:10:09;8.18;;;4.80;;
54517;SDS011;40423;53.176;6.002;2023-09-07T09:12:35;5.30;;;4.00;;
54517;SDS011;40423;53.176;6.002;2023-09-07T09:15:09;7.10;;;4.28;;
54517;SDS011;40423;53.176;6.002;2023-09-07T09:17:35;6.50;;;4.47;;
54517;SDS011;40423;53.176;6.002;2023-09-07T09:20:01;5.32;;;4.03;;
54517;SDS011;40423;53.176;6.002;2023-09-07T09:22:30;5.85;;;3.88;;
54517;SDS011;40423;53.176;6.002;2023-09-07T09:24:56;7.70;;;4.10;;
54517;SDS011;40423;53.176;6.002;2023-09-07T09:27:22;6.22;;;4.70;;
54517;SDS011;40423;53.176;6.002;2023-09-07T09:33:30;7.05;;;4.10;;
54517;SDS011;40423;53.176;6.002;2023-09-07T09:35:56;5.57;;;4.60;;
54517;SDS011;40423;53.176;6.002;2023-09-07T09:38:22;7.03;;;4.63;;
54517;SDS011;40423;53.176;6.002;2023-09-07T09:40:49;6.13;;;4.18;;
54517;SDS011;40423;53.176;6.002;2023-09-07T09:43:15;5.95;;;3.85;;
54517;SDS011;40423;53.176;6.002;2023-09-07T09:45:41;7.80;;;4.82;;
54517;SDS011;40423;53.176;6.002;2023-09-07T09:48:07;6.45;;;4.18;;
54517;SDS011;40423;53.176;6.002;2023-09-07T09:50:33;7.55;;;3.90;;
54517;SDS011;40423;53.176;6.002;2023-09-07T09:53:03;6.32;;;3.90;;
54517;SDS011;40423;53.176;6.002;2023-09-07T09:55:36;5.20;;;3.83;;
54517;SDS011;40423;53.176;6.002;2023-09-07T09:58:01;6.20;;;3.75;;
54517;SDS011;40423;53.176;6.002;2023-09-07T10:00:28;5.95;;;3.92;;
54517;SDS011;40423;53.176;6.002;2023-09-07T10:02:59;4.88;;;3.45;;
54517;SDS011;40423;53.176;6.002;2023-09-07T10:05:30;6.00;;;3.95;;
54517;SDS011;40423;53.176;6.002;2023-09-07T10:08:00;6.65;;;3.72;;
54517;SDS011;40423;53.176;6.002;2023-09-07T10:10:34;5.05;;;3.67;;
54517;SDS011;40423;53.176;6.002;2023-09-07T10:13:01;6.85;;;4.40;;
54517;SDS011;40423;53.176;6.002;2023-09-07T10:15:27;4.82;;;3.60;;
54517;SDS011;40423;53.176;6.002;2023-09-07T10:18:11;7.07;;;3.97;;
54517;SDS011;40423;53.176;6.002;2023-09-07T10:23:14;5.13;;;4.10;;
54517;SDS011;40423;53.176;6.002;2023-09-07T10:25:40;4.55;;;3.53;;
54517;SDS011;40423;53.176;6.002;2023-09-07T10:28:08;7.10;;;3.85;;
54517;SDS011;40423;53.176;6.002;2023-09-07T10:30:46;5.45;;;3.90;;
54517;SDS011;40423;53.176;6.002;2023-09-07T10:33:35;6.80;;;4.00;;
54517;SDS011;40423;53.176;6.002;2023-09-07T10:36:01;5.85;;;3.47;;
54517;SDS011;40423;53.176;6.002;2023-09-07T10:38:28;5.82;;;3.80;;
54517;SDS011;40423;53.176;6.002;2023-09-07T10:40:57;8.05;;;4.10;;
54517;SDS011;40423;53.176;6.002;2023-09-07T10:43:27;6.07;;;3.45;;
54517;SDS011;40423;53.176;6.002;2023-09-07T10:45:59;5.90;;;3.97;;
54517;SDS011;40423;53.176;6.002;2023-09-07T10:48:26;5.60;;;3.90;;
54517;SDS011;40423;53.176;6.002;2023-09-07T10:50:54;7.07;;;3.75;;
54517;SDS011;40423;53.176;6.002;2023-09-07T10:53:29;7.75;;;3.92;;
54517;SDS011;40423;53.176;6.002;2023-09-07T10:56:02;8.50;;;3.58;;
54517;SDS011;40423;53.176;6.002;2023-09-07T10:58:33;3.95;;;3.55;;
54517;SDS011;40423;53.176;6.002;2023-09-07T11:01:00;6.22;;;4.15;;
54517;SDS011;40423;53.176;6.002;2023-09-07T11:03:27;6.07;;;3.88;;
54517;SDS011;40423;53.176;6.002;2023-09-07T11:06:09;6.47;;;3.70;;
54517;SDS011;40423;53.176;6.002;2023-09-07T11:08:37;5.85;;;3.78;;
54517;SDS011;40423;53.176;6.002;2023-09-07T11:11:03;6.32;;;3.90;;
54517;SDS011;40423;53.176;6.002;2023-09-07T11:13:29;9.50;;;4.03;;
54517;SDS011;40423;53.176;6.002;2023-09-07T11:15:55;6.50;;;3.63;;
54517;SDS011;40423;53.176;6.002;2023-09-07T11:18:23;6.05;;;3.70;;
54517;SDS011;40423;53.176;6.002;2023-09-07T11:20:49;4.53;;;3.70;;
54517;SDS011;40423;53.176;6.002;2023-09-07T11:23:17;6.35;;;3.55;;
54517;SDS011;40423;53.176;6.002;2023-09-07T11:25:44;4.88;;;3.78;;
54517;SDS011;40423;53.176;6.002;2023-09-07T11:28:12;5.53;;;3.83;;
54517;SDS011;40423;53.176;6.002;2023-09-07T11:30:47;6.38;;;3.47;;
54517;SDS011;40423;53.176;6.002;2023-09-07T11:33:18;5.95;;;3.70;;
54517;SDS011;40423;53.176;6.002;2023-09-07T11:35:44;9.98;;;4.05;;
54517;SDS011;40423;53.176;6.002;2023-09-07T11:38:12;6.30;;;3.42;;
54517;SDS011;40423;53.176;6.002;2023-09-07T11:40:38;6.57;;;4.15;;
54517;SDS011;40423;53.176;6.002;2023-09-07T11:43:04;6.55;;;3.78;;
54517;SDS011;40423;53.176;6.002;2023-09-07T11:45:30;5.63;;;2.90;;
54517;SDS011;40423;53.176;6.002;2023-09-07T11:47:57;5.68;;;3.63;;
54517;SDS011;40423;53.176;6.002;2023-09-07T11:50:23;7.95;;;3.50;;
54517;SDS011;40423;53.176;6.002;2023-09-07T11:52:50;4.40;;;3.47;;
54517;SDS011;40423;53.176;6.002;2023-09-07T11:55:16;4.47;;;3.35;;
54517;SDS011;40423;53.176;6.002;2023-09-07T11:57:41;5.05;;;3.45;;
54517;SDS011;40423;53.176;6.002;2023-09-07T12:00:08;5.03;;;3.60;;
54517;SDS011;40423;53.176;6.002;2023-09-07T12:02:39;5.63;;;4.10;;
54517;SDS011;40423;53.176;6.002;2023-09-07T12:05:05;7.68;;;4.03;;
54517;SDS011;40423;53.176;6.002;2023-09-07T12:07:35;5.80;;;3.95;;
54517;SDS011;40423;53.176;6.002;2023-09-07T12:10:01;4.70;;;3.75;;
54517;SDS011;40423;53.176;6.002;2023-09-07T12:12:28;5.88;;;3.28;;
54517;SDS011;40423;53.176;6.002;2023-09-07T12:14:53;7.13;;;4.15;;
54517;SDS011;40423;53.176;6.002;2023-09-07T12:17:21;5.13;;;3.95;;
54517;SDS011;40423;53.176;6.002;2023-09-07T12:19:49;6.43;;;3.83;;
54517;SDS011;40423;53.176;6.002;2023-09-07T12:22:15;5.47;;;3.60;;
54517;SDS011;40423;53.176;6.002;2023-09-07T12:24:40;5.28;;;3.97;;
54517;SDS011;40423;53.176;6.002;2023-09-07T12:27:06;5.40;;;4.60;;
54517;SDS011;40423;53.176;6.002;2023-09-07T12:29:32;6.53;;;3.83;;
54517;SDS011;40423;53.176;6.002;2023-09-07T12:31:58;6.15;;;4.15;;
54517;SDS011;40423;53.176;6.002;2023-09-07T12:34:24;8.25;;;3.80;;
54517;SDS011;40423;53.176;6.002;2023-09-07T12:36:50;5.20;;;3.95;;
54517;SDS011;40423;53.176;6.002;2023-09-07T12:39:16;6.25;;;3.45;;
54517;SDS011;40423;53.176;6.002;2023-09-07T12:41:42;5.22;;;3.40;;
54517;SDS011;40423;53.176;6.002;2023-09-07T12:44:08;7.32;;;3.80;;
54517;SDS011;40423;53.176;6.002;2023-09-07T12:46:34;5.50;;;3.80;;
54517;SDS011;40423;53.176;6.002;2023-09-07T12:49:00;5.20;;;3.90;;
54517;SDS011;40423;53.176;6.002;2023-09-07T12:51:26;5.78;;;3.85;;
54517;SDS011;40423;53.176;6.002;2023-09-07T12:53:51;7.78;;;3.97;;
54517;SDS011;40423;53.176;6.002;2023-09-07T12:56:17;7.28;;;3.88;;
54517;SDS011;40423;53.176;6.002;2023-09-07T12:58:44;6.40;;;3.97;;
54517;SDS011;40423;53.176;6.002;2023-09-07T13:01:09;6.40;;;4.45;;
54517;SDS011;40423;53.176;6.002;2023-09-07T13:03:39;5.80;;;4.13;;
54517;SDS011;40423;53.176;6.002;2023-09-07T13:06:04;8.00;;;3.90;;
54517;SDS011;40423;53.176;6.002;2023-09-07T13:08:30;5.18;;;3.50;;
54517;SDS011;40423;53.176;6.002;2023-09-07T13:10:56;6.40;;;4.22;;
54517;SDS011;40423;53.176;6.002;2023-09-07T13:13:24;5.95;;;3.55;;
54517;SDS011;40423;53.176;6.002;2023-09-07T13:15:56;7.35;;;3.80;;
54517;SDS011;40423;53.176;6.002;2023-09-07T13:18:22;4.93;;;3.50;;
54517;SDS011;40423;53.176;6.002;2023-09-07T13:20:48;4.15;;;3.13;;
54517;SDS011;40423;53.176;6.002;2023-09-07T13:23:15;6.78;;;3.67;;
54517;SDS011;40423;53.176;6.002;2023-09-07T13:25:41;5.78;;;3.47;;
54517;SDS011;40423;53.176;6.002;2023-09-07T13:28:07;5.43;;;3.53;;
54517;SDS011;40423;53.176;6.002;2023-09-07T13:30:33;3.40;;;3.10;;
54517;SDS011;40423;53.176;6.002;2023-09-07T13:32:58;12.27;;;3.85;;
54517;SDS011;40423;53.176;6.002;2023-09-07T13:35:25;6.78;;;3.05;;
54517;SDS011;40423;53.176;6.002;2023-09-07T13:37:51;6.38;;;3.25;;
54517;SDS011;40423;53.176;6.002;2023-09-07T13:40:17;7.82;;;3.75;;
54517;SDS011;40423;53.176;6.002;2023-09-07T13:42:44;6.72;;;3.15;;
54517;SDS011;40423;53.176;6.002;2023-09-07T13:45:13;7.80;;;3.20;;
54517;SDS011;40423;53.176;6.002;2023-09-07T13:47:39;4.30;;;3.10;;
54517;SDS011;40423;53.176;6.002;2023-09-07T13:50:04;5.28;;;3.42;;
54517;SDS011;40423;53.176;6.002;2023-09-07T13:52:31;6.30;;;3.30;;
54517;SDS011;40423;53.176;6.002;2023-09-07T13:54:57;6.90;;;3.00;;
54517;SDS011;40423;53.176;6.002;2023-09-07T13:57:22;5.10;;;3.55;;
54517;SDS011;40423;53.176;6.002;2023-09-07T13:59:48;6.72;;;3.55;;
54517;SDS011;40423;53.176;6.002;2023-09-07T14:02:14;4.93;;;3.65;;
54517;SDS011;40423;53.176;6.002;2023-09-07T14:04:40;5.07;;;2.95;;
54517;SDS011;40423;53.176;6.002;2023-09-07T14:07:06;5.45;;;3.70;;
54517;SDS011;40423;53.176;6.002;2023-09-07T14:09:31;7.47;;;3.58;;
54517;SDS011;40423;53.176;6.002;2023-09-07T14:11:58;7.07;;;3.22;;
54517;SDS011;40423;53.176;6.002;2023-09-07T14:14:24;6.55;;;3.75;;
54517;SDS011;40423;53.176;6.002;2023-09-07T14:16:50;10.65;;;4.28;;
54517;SDS011;40423;53.176;6.002;2023-09-07T14:19:20;7.28;;;3.80;;
54517;SDS011;40423;53.176;6.002;2023-09-07T14:21:46;6.30;;;3.50;;
54517;SDS011;40423;53.176;6.002;2023-09-07T14:24:11;5.40;;;3.70;;
54517;SDS011;40423;53.176;6.002;2023-09-07T14:26:37;7.10;;;3.58;;
54517;SDS011;40423;53.176;6.002;2023-09-07T14:29:03;7.70;;;3.63;;
54517;SDS011;40423;53.176;6.002;2023-09-07T14:31:30;5.35;;;3.53;;
54517;SDS011;40423;53.176;6.002;2023-09-07T14:33:55;6.18;;;3.30;;
54517;SDS011;40423;53.176;6.002;2023-09-07T14:36:21;5.32;;;3.70;;
54517;SDS011;40423;53.176;6.002;2023-09-07T14:38:47;7.38;;;3.83;;
54517;SDS011;40423;53.176;6.002;2023-09-07T14:41:12;6.07;;;3.90;;
54517;SDS011;40423;53.176;6.002;2023-09-07T14:43:44;5.30;;;3.63;;
54517;SDS011;40423;53.176;6.002;2023-09-07T14:46:11;5.97;;;3.28;;
54517;SDS011;40423;53.176;6.002;2023-09-07T14:48:37;4.45;;;4.05;;